sensor_id;sensor_type;location;lat;lon;timestamp;pressure;altitude;pressure_sealevel;temperature;humidity
30598;BME280;17365;48.878;8.334;2023-02-23T00:01:27;99754.38;;;10.44;100.00
30598;BME280;17365;48.878;8.334;2023-02-23T00:03:55;99754.31;;;10.50;100.00
30598;BME280;17365;48.878;8.334;2023-02-23T00:06:22;99752.59;;;10.57;100.00
30598;BME280;17365;48.878;8.334;2023-02-23T00:08:48;99742.19;;;10.59;100.00
30598;BME280;17365;48.878;8.334;2023-02-23T00:11:15;99754.28;;;10.61;100.00
30598;BME280;17365;48.878;8.334;2023-02-23T00:13:42;99744.81;;;10.54;100.00
30598;BME280;17365;48.878;8.334;2023-02-23T00:16:12;99745.75;;;10.35;100.00
30598;BME280;17365;48.878;8.334;2023-02-23T00:18:42;99750.88;;;10.48;100.00
30598;BME280;17365;48.878;8.334;2023-02-23T00:21:18;99752.59;;;10.56;100.00
30598;BME280;17365;48.878;8.334;2023-02-23T00:23:58;99743.91;;;10.60;100.00
30598;BME280;17365;48.878;8.334;2023-02-23T00:26:26;99744.78;;;10.62;100.00
30598;BME280;17365;48.878;8.334;2023-02-23T00:28:55;99745.63;;;10.64;100.00
30598;BME280;17365;48.878;8.334;2023-02-23T00:31:20;99732.66;;;10.67;100.00
30598;BME280;17365;48.878;8.334;2023-02-23T00:33:56;99742.19;;;10.59;100.00
30598;BME280;17365;48.878;8.334;2023-02-23T00:36:26;99741.31;;;10.60;100.00
30598;BME280;17365;48.878;8.334;2023-02-23T00:38:54;99745.66;;;10.59;100.00
30598;BME280;17365;48.878;8.334;2023-02-23T00:41:20;99750.00;;;10.53;100.00
30598;BME280;17365;48.878;8.334;2023-02-23T00:43:47;99743.94;;;10.57;100.00
30598;BME280;17365;48.878;8.334;2023-02-23T00:46:17;99740.47;;;10.58;100.00
30598;BME280;17365;48.878;8.334;2023-02-23T00:48:45;99746.53;;;10.55;100.00
30598;BME280;17365;48.878;8.334;2023-02-23T00:51:10;99737.84;;;10.61;100.00
30598;BME280;17365;48.878;8.334;2023-02-23T00:53:36;99739.59;;;10.62;100.00
30598;BME280;17365;48.878;8.334;2023-02-23T00:56:06;99737.00;;;10.59;100.00
30598;BME280;17365;48.878;8.334;2023-02-23T00:58:31;99738.75;;;10.57;100.00
30598;BME280;17365;48.878;8.334;2023-02-23T01:00:57;99736.13;;;10.60;100.00
30598;BME280;17365;48.878;8.334;2023-02-23T01:03:26;99731.81;;;10.60;100.00
30598;BME280;17365;48.878;8.334;2023-02-23T01:05:52;99734.41;;;10.62;100.00
30598;BME280;17365;48.878;8.334;2023-02-23T01:08:19;99732.69;;;10.58;100.00
30598;BME280;17365;48.878;8.334;2023-02-23T01:10:46;99730.09;;;10.59;100.00
30598;BME280;17365;48.878;8.334;2023-02-23T01:13:18;99733.56;;;10.58;100.00
30598;BME280;17365;48.878;8.334;2023-02-23T01:15:44;99738.72;;;10.60;100.00
30598;BME280;17365;48.878;8.334;2023-02-23T01:18:10;99727.50;;;10.61;100.00
30598;BME280;17365;48.878;8.334;2023-02-23T01:20:36;99732.69;;;10.61;100.00
30598;BME280;17365;48.878;8.334;2023-02-23T01:23:02;99738.75;;;10.52;100.00
30598;BME280;17365;48.878;8.334;2023-02-23T01:25:28;99738.75;;;10.52;100.00
30598;BME280;17365;48.878;8.334;2023-02-23T01:27:54;99739.63;;;10.51;100.00
30598;BME280;17365;48.878;8.334;2023-02-23T01:30:20;99734.44;;;10.56;100.00
30598;BME280;17365;48.878;8.334;2023-02-23T01:32:45;99735.31;;;10.48;100.00
30598;BME280;17365;48.878;8.334;2023-02-23T01:35:11;99735.31;;;10.50;100.00
30598;BME280;17365;48.878;8.334;2023-02-23T01:37:39;99738.78;;;10.47;100.00
30598;BME280;17365;48.878;8.334;2023-02-23T01:40:07;99728.44;;;10.44;100.00
30598;BME280;17365;48.878;8.334;2023-02-23T01:42:39;99731.94;;;10.34;100.00
30598;BME280;17365;48.878;8.334;2023-02-23T01:48:03;99723.25;;;10.43;100.00
30598;BME280;17365;48.878;8.334;2023-02-23T01:50:37;99728.44;;;10.43;100.00
30598;BME280;17365;48.878;8.334;2023-02-23T01:53:04;99726.72;;;10.43;100.00
30598;BME280;17365;48.878;8.334;2023-02-23T01:55:30;99725.00;;;10.42;100.00
30598;BME280;17365;48.878;8.334;2023-02-23T01:58:04;99724.09;;;10.45;100.00
30598;BME280;17365;48.878;8.334;2023-02-23T02:00:30;99726.69;;;10.46;100.00
30598;BME280;17365;48.878;8.334;2023-02-23T02:02:59;99723.31;;;10.22;100.00
30598;BME280;17365;48.878;8.334;2023-02-23T02:05:25;99727.63;;;10.16;100.00
30598;BME280;17365;48.878;8.334;2023-02-23T02:07:52;99730.22;;;10.27;100.00
30598;BME280;17365;48.878;8.334;2023-02-23T02:10:25;99728.47;;;10.32;100.00
30598;BME280;17365;48.878;8.334;2023-02-23T02:13:11;99730.19;;;10.30;100.00
30598;BME280;17365;48.878;8.334;2023-02-23T02:16:20;99729.34;;;10.17;100.00
30598;BME280;17365;48.878;8.334;2023-02-23T02:27:18;99723.31;;;10.25;100.00
30598;BME280;17365;48.878;8.334;2023-02-23T02:30:25;99720.72;;;10.23;100.00
30598;BME280;17365;48.878;8.334;2023-02-23T02:34:12;99725.03;;;10.27;100.00
30598;BME280;17365;48.878;8.334;2023-02-23T02:38:51;99716.38;;;10.33;100.00
30598;BME280;17365;48.878;8.334;2023-02-23T02:41:32;99713.78;;;10.34;100.00
30598;BME280;17365;48.878;8.334;2023-02-23T02:44:10;99716.38;;;10.34;100.00
30598;BME280;17365;48.878;8.334;2023-02-23T02:46:42;99716.38;;;10.34;100.00
30598;BME280;17365;48.878;8.334;2023-02-23T02:49:29;99717.25;;;10.33;100.00
30598;BME280;17365;48.878;8.334;2023-02-23T02:52:02;99714.66;;;10.33;100.00
30598;BME280;17365;48.878;8.334;2023-02-23T02:54:38;99711.19;;;10.33;100.00
30598;BME280;17365;48.878;8.334;2023-02-23T02:57:05;99712.06;;;10.33;100.00
30598;BME280;17365;48.878;8.334;2023-02-23T02:59:42;99716.38;;;10.28;100.00
30598;BME280;17365;48.878;8.334;2023-02-23T03:02:26;99707.75;;;10.26;100.00
30598;BME280;17365;48.878;8.334;2023-02-23T03:05:13;99716.41;;;10.25;100.00
30598;BME280;17365;48.878;8.334;2023-02-23T03:08:13;99719.00;;;10.22;100.00
30598;BME280;17365;48.878;8.334;2023-02-23T03:11:04;99722.47;;;10.23;100.00
30598;BME280;17365;48.878;8.334;2023-02-23T03:14:27;99710.34;;;10.25;100.00
30598;BME280;17365;48.878;8.334;2023-02-23T03:17:44;99718.13;;;10.14;100.00
30598;BME280;17365;48.878;8.334;2023-02-23T03:26:29;99718.16;;;10.22;100.00
30598;BME280;17365;48.878;8.334;2023-02-23T03:29:44;99723.31;;;10.20;100.00
30598;BME280;17365;48.878;8.334;2023-02-23T03:32:43;99721.59;;;10.24;100.00
30598;BME280;17365;48.878;8.334;2023-02-23T03:35:47;99719.84;;;10.21;100.00
30598;BME280;17365;48.878;8.334;2023-02-23T03:38:50;99718.13;;;10.26;100.00
30598;BME280;17365;48.878;8.334;2023-02-23T03:41:36;99713.78;;;10.30;100.00
30598;BME280;17365;48.878;8.334;2023-02-23T03:44:28;99723.28;;;10.29;100.00
30598;BME280;17365;48.878;8.334;2023-02-23T03:47:14;99710.34;;;10.23;100.00
30598;BME280;17365;48.878;8.334;2023-02-23T03:50:00;99718.97;;;10.27;100.00
30598;BME280;17365;48.878;8.334;2023-02-23T03:52:53;99715.50;;;10.17;100.00
30598;BME280;17365;48.878;8.334;2023-02-23T03:55:42;99721.59;;;10.22;100.00
30598;BME280;17365;48.878;8.334;2023-02-23T03:58:40;99725.03;;;10.19;100.00
30598;BME280;17365;48.878;8.334;2023-02-23T04:01:26;99709.47;;;10.16;100.00
30598;BME280;17365;48.878;8.334;2023-02-23T04:04:11;99713.78;;;10.16;100.00
30598;BME280;17365;48.878;8.334;2023-02-23T04:06:55;99719.00;;;10.04;100.00
30598;BME280;17365;48.878;8.334;2023-02-23T04:09:40;99716.38;;;10.19;100.00
30598;BME280;17365;48.878;8.334;2023-02-23T04:12:33;99714.63;;;10.18;100.00
30598;BME280;17365;48.878;8.334;2023-02-23T04:15:41;99723.34;;;10.09;100.00
30598;BME280;17365;48.878;8.334;2023-02-23T04:18:12;99714.63;;;10.18;100.00
30598;BME280;17365;48.878;8.334;2023-02-23T04:20:38;99720.72;;;10.23;100.00
30598;BME280;17365;48.878;8.334;2023-02-23T04:23:04;99718.13;;;10.26;100.00
30598;BME280;17365;48.878;8.334;2023-02-23T04:25:29;99726.75;;;10.25;100.00
30598;BME280;17365;48.878;8.334;2023-02-23T04:27:54;99723.31;;;10.22;100.00
30598;BME280;17365;48.878;8.334;2023-02-23T04:30:20;99725.03;;;10.15;100.00
30598;BME280;17365;48.878;8.334;2023-02-23T04:32:45;99724.16;;;10.25;100.00
30598;BME280;17365;48.878;8.334;2023-02-23T04:35:12;99731.06;;;10.29;100.00
30598;BME280;17365;48.878;8.334;2023-02-23T04:37:37;99725.03;;;10.24;100.00
30598;BME280;17365;48.878;8.334;2023-02-23T04:40:03;99724.16;;;10.25;100.00
30598;BME280;17365;48.878;8.334;2023-02-23T04:42:29;99729.31;;;10.30;100.00
30598;BME280;17365;48.878;8.334;2023-02-23T04:44:54;99725.03;;;10.26;100.00
30598;BME280;17365;48.878;8.334;2023-02-23T04:47:19;99726.75;;;10.25;100.00
30598;BME280;17365;48.878;8.334;2023-02-23T04:49:45;99717.22;;;10.29;100.00
30598;BME280;17365;48.878;8.334;2023-02-23T04:52:10;99720.72;;;10.15;100.00
30598;BME280;17365;48.878;8.334;2023-02-23T04:54:39;99723.31;;;10.22;100.00
30598;BME280;17365;48.878;8.334;2023-02-23T04:57:04;99718.13;;;10.23;100.00
30598;BME280;17365;48.878;8.334;2023-02-23T04:59:30;99719.00;;;10.25;100.00
30598;BME280;17365;48.878;8.334;2023-02-23T05:01:56;99713.78;;;10.27;100.00
30598;BME280;17365;48.878;8.334;2023-02-23T05:04:21;99717.25;;;10.26;100.00
30598;BME280;17365;48.878;8.334;2023-02-23T05:06:47;99718.13;;;10.25;100.00
30598;BME280;17365;48.878;8.334;2023-02-23T05:09:12;99719.00;;;10.22;100.00
30598;BME280;17365;48.878;8.334;2023-02-23T05:11:37;99712.91;;;10.17;100.00
30598;BME280;17365;48.878;8.334;2023-02-23T05:14:03;99720.72;;;10.20;100.00
30598;BME280;17365;48.878;8.334;2023-02-23T05:16:29;99714.63;;;10.18;100.00
30598;BME280;17365;48.878;8.334;2023-02-23T05:18:54;99719.84;;;10.21;100.00
30598;BME280;17365;48.878;8.334;2023-02-23T05:21:19;99720.72;;;10.20;100.00
30598;BME280;17365;48.878;8.334;2023-02-23T05:23:45;99723.31;;;10.20;100.00
30598;BME280;17365;48.878;8.334;2023-02-23T05:26:11;99724.19;;;10.22;100.00
30598;BME280;17365;48.878;8.334;2023-02-23T05:28:38;99719.81;;;10.18;100.00
30598;BME280;17365;48.878;8.334;2023-02-23T05:31:04;99717.25;;;10.13;100.00
30598;BME280;17365;48.878;8.334;2023-02-23T05:33:34;99719.88;;;10.10;100.00
30598;BME280;17365;48.878;8.334;2023-02-23T05:36:10;99719.88;;;10.09;100.00
30598;BME280;17365;48.878;8.334;2023-02-23T05:38:35;99719.88;;;10.10;100.00
30598;BME280;17365;48.878;8.334;2023-02-23T05:41:06;99728.50;;;10.06;100.00
30598;BME280;17365;48.878;8.334;2023-02-23T05:43:31;99720.72;;;10.06;100.00
30598;BME280;17365;48.878;8.334;2023-02-23T05:45:56;99721.63;;;9.98;100.00
30598;BME280;17365;48.878;8.334;2023-02-23T05:48:22;99721.63;;;9.95;100.00
30598;BME280;17365;48.878;8.334;2023-02-23T05:50:47;99721.66;;;9.88;100.00
30598;BME280;17365;48.878;8.334;2023-02-23T05:53:13;99719.06;;;9.87;100.00
30598;BME280;17365;48.878;8.334;2023-02-23T05:55:38;99725.09;;;9.81;100.00
30598;BME280;17365;48.878;8.334;2023-02-23T05:58:03;99721.66;;;9.79;100.00
30598;BME280;17365;48.878;8.334;2023-02-23T06:00:29;99724.25;;;9.78;100.00
30598;BME280;17365;48.878;8.334;2023-02-23T06:02:54;99719.06;;;9.87;100.00
30598;BME280;17365;48.878;8.334;2023-02-23T06:05:19;99714.75;;;9.87;100.00
30598;BME280;17365;48.878;8.334;2023-02-23T06:07:44;99729.41;;;9.91;100.00
30598;BME280;17365;48.878;8.334;2023-02-23T06:10:10;99730.28;;;9.97;100.00
30598;BME280;17365;48.878;8.334;2023-02-23T06:12:36;99723.38;;;9.88;100.00
30598;BME280;17365;48.878;8.334;2023-02-23T06:15:01;99729.41;;;9.93;100.00
30598;BME280;17365;48.878;8.334;2023-02-23T06:17:26;99735.44;;;9.83;100.00
30598;BME280;17365;48.878;8.334;2023-02-23T06:19:51;99728.53;;;9.85;100.00
30598;BME280;17365;48.878;8.334;2023-02-23T06:22:17;99735.47;;;9.89;100.00
30598;BME280;17365;48.878;8.334;2023-02-23T06:24:42;99735.44;;;9.84;100.00
30598;BME280;17365;48.878;8.334;2023-02-23T06:27:08;99739.75;;;9.84;100.00
30598;BME280;17365;48.878;8.334;2023-02-23T06:29:34;99739.78;;;9.90;100.00
30598;BME280;17365;48.878;8.334;2023-02-23T06:32:01;99737.19;;;9.88;100.00
30598;BME280;17365;48.878;8.334;2023-02-23T06:34:26;99744.09;;;9.83;100.00
30598;BME280;17365;48.878;8.334;2023-02-23T06:36:51;99743.22;;;9.89;100.00
30598;BME280;17365;48.878;8.334;2023-02-23T06:39:17;99750.13;;;9.93;100.00
30598;BME280;17365;48.878;8.334;2023-02-23T06:41:42;99751.00;;;9.92;100.00
30598;BME280;17365;48.878;8.334;2023-02-23T06:44:07;99757.03;;;9.96;100.00
30598;BME280;17365;48.878;8.334;2023-02-23T06:46:32;99757.03;;;10.00;100.00
30598;BME280;17365;48.878;8.334;2023-02-23T06:48:58;99764.81;;;10.02;100.00
30598;BME280;17365;48.878;8.334;2023-02-23T06:51:24;99763.94;;;10.00;100.00
30598;BME280;17365;48.878;8.334;2023-02-23T06:53:49;99774.31;;;9.90;100.00
30598;BME280;17365;48.878;8.334;2023-02-23T06:56:17;99768.25;;;10.02;100.00
30598;BME280;17365;48.878;8.334;2023-02-23T06:58:43;99774.31;;;9.98;100.00
30598;BME280;17365;48.878;8.334;2023-02-23T07:01:09;99776.03;;;9.96;100.00
30598;BME280;17365;48.878;8.334;2023-02-23T07:03:34;99775.19;;;9.99;100.00
30598;BME280;17365;48.878;8.334;2023-02-23T07:05:59;99782.94;;;9.85;100.00
30598;BME280;17365;48.878;8.334;2023-02-23T07:08:25;99786.38;;;10.07;100.00
30598;BME280;17365;48.878;8.334;2023-02-23T07:10:50;99788.97;;;10.14;100.00
30598;BME280;17365;48.878;8.334;2023-02-23T07:13:15;99779.44;;;10.18;100.00
30598;BME280;17365;48.878;8.334;2023-02-23T07:15:41;99786.38;;;10.25;100.00
30598;BME280;17365;48.878;8.334;2023-02-23T07:18:07;99788.09;;;10.29;100.00
30598;BME280;17365;48.878;8.334;2023-02-23T07:20:33;99790.66;;;10.38;100.00
30598;BME280;17365;48.878;8.334;2023-02-23T07:22:59;99789.81;;;10.36;100.00
30598;BME280;17365;48.878;8.334;2023-02-23T07:25:26;99782.91;;;10.43;100.00
30598;BME280;17365;48.878;8.334;2023-02-23T07:27:51;99791.53;;;10.39;100.00
30598;BME280;17365;48.878;8.334;2023-02-23T07:30:18;99786.31;;;10.51;100.00
30598;BME280;17365;48.878;8.334;2023-02-23T07:32:44;99788.91;;;10.56;100.00
30598;BME280;17365;48.878;8.334;2023-02-23T07:35:09;99787.13;;;10.62;100.00
30598;BME280;17365;48.878;8.334;2023-02-23T07:37:34;99789.72;;;10.67;100.00
30598;BME280;17365;48.878;8.334;2023-02-23T07:40:00;99794.91;;;10.70;100.00
30598;BME280;17365;48.878;8.334;2023-02-23T07:42:26;99794.00;;;10.75;100.00
30598;BME280;17365;48.878;8.334;2023-02-23T07:44:51;99800.88;;;10.84;100.00
30598;BME280;17365;48.878;8.334;2023-02-23T07:47:16;99805.22;;;10.84;100.00
30598;BME280;17365;48.878;8.334;2023-02-23T07:49:41;99805.19;;;10.90;100.00
30598;BME280;17365;48.878;8.334;2023-02-23T07:52:07;99799.16;;;10.89;100.00
30598;BME280;17365;48.878;8.334;2023-02-23T07:54:32;99808.59;;;11.04;100.00
30598;BME280;17365;48.878;8.334;2023-02-23T07:56:59;99805.94;;;11.15;100.00
30598;BME280;17365;48.878;8.334;2023-02-23T07:59:24;99806.78;;;11.18;100.00
30598;BME280;17365;48.878;8.334;2023-02-23T08:01:50;99812.09;;;11.00;100.00
30598;BME280;17365;48.878;8.334;2023-02-23T08:04:16;99803.34;;;11.15;100.00
30598;BME280;17365;48.878;8.334;2023-02-23T08:06:42;99801.59;;;11.21;100.00
30598;BME280;17365;48.878;8.334;2023-02-23T08:09:07;99795.41;;;11.39;100.00
30598;BME280;17365;48.878;8.334;2023-02-23T08:11:32;99805.81;;;11.37;100.00
30598;BME280;17365;48.878;8.334;2023-02-23T08:13:58;99805.72;;;11.50;100.00
30598;BME280;17365;48.878;8.334;2023-02-23T08:16:29;99805.84;;;11.30;100.00
30598;BME280;17365;48.878;8.334;2023-02-23T08:18:58;99790.13;;;11.50;100.00
30598;BME280;17365;48.878;8.334;2023-02-23T08:21:24;99796.31;;;11.30;100.00
30598;BME280;17365;48.878;8.334;2023-02-23T08:23:49;99797.03;;;11.52;100.00
30598;BME280;17365;48.878;8.334;2023-02-23T08:26:15;99795.25;;;11.60;100.00
30598;BME280;17365;48.878;8.334;2023-02-23T08:28:40;99800.41;;;11.65;100.00
30598;BME280;17365;48.878;8.334;2023-02-23T08:31:09;99805.63;;;11.60;100.00
30598;BME280;17365;48.878;8.334;2023-02-23T08:33:35;99801.25;;;11.69;100.00
30598;BME280;17365;48.878;8.334;2023-02-23T08:36:01;99803.84;;;11.70;100.00
30598;BME280;17365;48.878;8.334;2023-02-23T08:38:27;99801.44;;;11.46;100.00
30598;BME280;17365;48.878;8.334;2023-02-23T08:40:52;99800.84;;;10.99;100.00
30598;BME280;17365;48.878;8.334;2023-02-23T08:43:18;99801.75;;;10.88;100.00
30598;BME280;17365;48.878;8.334;2023-02-23T08:45:43;99808.56;;;11.08;100.00
30598;BME280;17365;48.878;8.334;2023-02-23T08:48:09;99818.16;;;10.91;100.00
30598;BME280;17365;48.878;8.334;2023-02-23T08:50:34;99811.34;;;10.64;100.00
30598;BME280;17365;48.878;8.334;2023-02-23T08:52:59;99808.75;;;10.66;100.00
30598;BME280;17365;48.878;8.334;2023-02-23T08:55:25;99813.91;;;10.76;100.00
30598;BME280;17365;48.878;8.334;2023-02-23T08:57:50;99815.47;;;11.09;100.00
30598;BME280;17365;48.878;8.334;2023-02-23T09:00:16;99816.09;;;11.51;100.00
30598;BME280;17365;48.878;8.334;2023-02-23T09:02:43;99823.00;;;11.57;100.00
30598;BME280;17365;48.878;8.334;2023-02-23T09:05:09;99820.25;;;11.78;100.00
30598;BME280;17365;48.878;8.334;2023-02-23T09:07:36;99814.81;;;12.07;100.00
30598;BME280;17365;48.878;8.334;2023-02-23T09:10:02;99819.09;;;12.14;100.00
30598;BME280;17365;48.878;8.334;2023-02-23T09:13:05;99822.84;;;12.67;100.00
30598;BME280;17365;48.878;8.334;2023-02-23T09:15:36;99823.59;;;12.78;100.00
30598;BME280;17365;48.878;8.334;2023-02-23T09:18:11;99817.00;;;12.50;100.00
30598;BME280;17365;48.878;8.334;2023-02-23T09:20:41;99816.69;;;11.91;100.00
30598;BME280;17365;48.878;8.334;2023-02-23T09:23:08;99824.41;;;11.99;100.00
30598;BME280;17365;48.878;8.334;2023-02-23T09:25:41;99826.16;;;12.02;100.00
30598;BME280;17365;48.878;8.334;2023-02-23T09:28:13;99823.22;;;12.35;100.00
30598;BME280;17365;48.878;8.334;2023-02-23T09:30:41;99820.53;;;12.43;100.00
30598;BME280;17365;48.878;8.334;2023-02-23T09:33:07;99811.56;;;12.71;100.00
30598;BME280;17365;48.878;8.334;2023-02-23T09:35:33;99814.50;;;13.15;98.25
30598;BME280;17365;48.878;8.334;2023-02-23T09:38:01;99822.13;;;13.28;97.21
30598;BME280;17365;48.878;8.334;2023-02-23T09:40:57;99817.75;;;12.60;97.07
30598;BME280;17365;48.878;8.334;2023-02-23T09:43:44;99817.25;;;13.01;97.47
30598;BME280;17365;48.878;8.334;2023-02-23T09:49:15;99825.50;;;12.64;95.29
30598;BME280;17365;48.878;8.334;2023-02-23T09:54:56;99830.91;;;12.47;97.77
30598;BME280;17365;48.878;8.334;2023-02-23T09:57:36;99817.34;;;12.95;96.30
30598;BME280;17365;48.878;8.334;2023-02-23T10:00:09;99821.88;;;12.80;95.79
30598;BME280;17365;48.878;8.334;2023-02-23T10:02:37;99827.59;;;12.32;98.72
30598;BME280;17365;48.878;8.334;2023-02-23T10:05:11;99832.00;;;12.23;98.91
30598;BME280;17365;48.878;8.334;2023-02-23T10:08:00;99837.97;;;12.36;98.76
30598;BME280;17365;48.878;8.334;2023-02-23T10:10:55;99830.94;;;12.46;97.91
30598;BME280;17365;48.878;8.334;2023-02-23T10:16:55;99828.53;;;12.23;98.04
30598;BME280;17365;48.878;8.334;2023-02-23T10:22:06;99837.22;;;12.20;99.88
30598;BME280;17365;48.878;8.334;2023-02-23T10:24:36;99833.09;;;12.01;99.72
30598;BME280;17365;48.878;8.334;2023-02-23T10:27:12;99830.25;;;12.26;99.32
30598;BME280;17365;48.878;8.334;2023-02-23T10:29:51;99830.47;;;12.01;100.00
30598;BME280;17365;48.878;8.334;2023-02-23T10:32:39;99826.84;;;12.17;98.95
30598;BME280;17365;48.878;8.334;2023-02-23T10:35:13;99838.88;;;12.29;98.76
30598;BME280;17365;48.878;8.334;2023-02-23T10:37:40;99841.44;;;12.32;98.58
30598;BME280;17365;48.878;8.334;2023-02-23T10:40:06;99835.44;;;12.27;99.16
30598;BME280;17365;48.878;8.334;2023-02-23T10:42:38;99843.00;;;12.50;98.24
30598;BME280;17365;48.878;8.334;2023-02-23T10:45:12;99839.63;;;12.42;98.23
30598;BME280;17365;48.878;8.334;2023-02-23T10:47:49;99837.22;;;12.23;98.67
30598;BME280;17365;48.878;8.334;2023-02-23T10:50:16;99831.13;;;12.26;98.63
30598;BME280;17365;48.878;8.334;2023-02-23T10:52:44;99837.00;;;12.43;98.10
30598;BME280;17365;48.878;8.334;2023-02-23T10:55:30;99847.03;;;11.88;99.14
30598;BME280;17365;48.878;8.334;2023-02-23T10:58:03;99843.34;;;12.16;99.52
30598;BME280;17365;48.878;8.334;2023-02-23T11:00:33;99843.53;;;11.95;99.86
30598;BME280;17365;48.878;8.334;2023-02-23T11:03:01;99840.94;;;11.92;100.00
30598;BME280;17365;48.878;8.334;2023-02-23T11:05:43;99834.81;;;12.01;100.00
30598;BME280;17365;48.878;8.334;2023-02-23T11:13:22;99830.44;;;12.04;100.00
30598;BME280;17365;48.878;8.334;2023-02-23T11:15:48;99833.94;;;12.02;100.00
30598;BME280;17365;48.878;8.334;2023-02-23T11:18:23;99827.75;;;12.16;99.31
30598;BME280;17365;48.878;8.334;2023-02-23T11:20:50;99830.97;;;12.40;98.66
30598;BME280;17365;48.878;8.334;2023-02-23T11:23:21;99828.63;;;12.15;98.93
30598;BME280;17365;48.878;8.334;2023-02-23T11:25:50;99825.91;;;12.28;98.77
30598;BME280;17365;48.878;8.334;2023-02-23T11:28:41;99823.25;;;12.32;98.13
30598;BME280;17365;48.878;8.334;2023-02-23T11:31:14;99813.41;;;12.60;96.39
30598;BME280;17365;48.878;8.334;2023-02-23T11:33:41;99811.34;;;12.87;95.53
30598;BME280;17365;48.878;8.334;2023-02-23T11:36:25;99813.16;;;12.83;95.05
30598;BME280;17365;48.878;8.334;2023-02-23T11:41:40;99816.19;;;12.46;96.18
30598;BME280;17365;48.878;8.334;2023-02-23T11:44:05;99814.34;;;12.53;95.90
30598;BME280;17365;48.878;8.334;2023-02-23T11:46:34;99803.91;;;12.56;95.41
30598;BME280;17365;48.878;8.334;2023-02-23T11:49:19;99808.38;;;12.43;94.37
30598;BME280;17365;48.878;8.334;2023-02-23T11:51:48;99803.31;;;12.31;95.20
30598;BME280;17365;48.878;8.334;2023-02-23T11:54:33;99799.06;;;12.21;96.13
30598;BME280;17365;48.878;8.334;2023-02-23T11:56:59;99809.22;;;12.48;95.82
30598;BME280;17365;48.878;8.334;2023-02-23T11:59:32;99799.38;;;12.73;94.05
30598;BME280;17365;48.878;8.334;2023-02-23T12:02:23;99789.38;;;13.09;92.82
30598;BME280;17365;48.878;8.334;2023-02-23T12:05:07;99789.22;;;13.23;91.74
30598;BME280;17365;48.878;8.334;2023-02-23T12:07:40;99786.56;;;13.27;91.15
30598;BME280;17365;48.878;8.334;2023-02-23T12:12:47;99791.63;;;12.70;93.06
30598;BME280;17365;48.878;8.334;2023-02-23T12:15:39;99790.59;;;12.82;92.00
30598;BME280;17365;48.878;8.334;2023-02-23T12:19:09;99789.03;;;12.67;92.52
30598;BME280;17365;48.878;8.334;2023-02-23T12:21:29;99787.16;;;12.80;92.56
30598;BME280;17365;48.878;8.334;2023-02-23T12:24:41;99783.78;;;12.72;91.53
30598;BME280;17365;48.878;8.334;2023-02-23T12:27:14;99785.63;;;12.62;91.72
30598;BME280;17365;48.878;8.334;2023-02-23T12:30:02;99782.69;;;12.91;91.06
30598;BME280;17365;48.878;8.334;2023-02-23T12:38:30;99775.00;;;12.80;92.58
30598;BME280;17365;48.878;8.334;2023-02-23T12:41:13;99778.47;;;12.79;91.94
30598;BME280;17365;48.878;8.334;2023-02-23T12:43:47;99765.88;;;13.15;90.81
30598;BME280;17365;48.878;8.334;2023-02-23T12:46:25;99768.72;;;12.97;90.04
30598;BME280;17365;48.878;8.334;2023-02-23T12:52:05;99766.28;;;12.85;90.83
30598;BME280;17365;48.878;8.334;2023-02-23T12:54:36;99769.22;;;12.57;89.99
30598;BME280;17365;48.878;8.334;2023-02-23T13:02:45;99761.94;;;12.83;90.98
30598;BME280;17365;48.878;8.334;2023-02-23T13:05:22;99770.25;;;13.10;90.49
30598;BME280;17365;48.878;8.334;2023-02-23T13:13:11;99771.56;;;13.42;88.62
30598;BME280;17365;48.878;8.334;2023-02-23T13:21:01;99754.78;;;13.61;88.59
30598;BME280;17365;48.878;8.334;2023-02-23T13:23:45;99759.97;;;13.61;88.44
30598;BME280;17365;48.878;8.334;2023-02-23T13:29:04;99750.97;;;13.26;88.03
30598;BME280;17365;48.878;8.334;2023-02-23T13:31:34;99758.63;;;13.35;88.29
30598;BME280;17365;48.878;8.334;2023-02-23T13:34:02;99760.88;;;12.98;89.48
30598;BME280;17365;48.878;8.334;2023-02-23T13:36:30;99760.78;;;13.06;88.24
30598;BME280;17365;48.878;8.334;2023-02-23T13:39:17;99752.94;;;13.07;88.90
30598;BME280;17365;48.878;8.334;2023-02-23T13:42:20;99750.50;;;12.95;88.72
30598;BME280;17365;48.878;8.334;2023-02-23T13:47:37;99746.59;;;13.28;88.55
30598;BME280;17365;48.878;8.334;2023-02-23T13:50:22;99749.75;;;13.47;88.24
30598;BME280;17365;48.878;8.334;2023-02-23T13:52:52;99743.47;;;13.00;88.92
30598;BME280;17365;48.878;8.334;2023-02-23T13:58:14;99743.81;;;12.76;89.67
30598;BME280;17365;48.878;8.334;2023-02-23T14:00:41;99743.34;;;13.11;88.91
30598;BME280;17365;48.878;8.334;2023-02-23T14:03:20;99744.03;;;13.24;88.51
30598;BME280;17365;48.878;8.334;2023-02-23T14:05:51;99742.03;;;12.78;88.97
30598;BME280;17365;48.878;8.334;2023-02-23T14:08:27;99743.69;;;12.85;90.37
30598;BME280;17365;48.878;8.334;2023-02-23T14:10:52;99743.59;;;12.94;90.27
30598;BME280;17365;48.878;8.334;2023-02-23T14:13:26;99743.16;;;13.25;88.40
30598;BME280;17365;48.878;8.334;2023-02-23T14:16:13;99741.72;;;13.04;89.08
30598;BME280;17365;48.878;8.334;2023-02-23T14:21:31;99736.63;;;13.55;87.82
30598;BME280;17365;48.878;8.334;2023-02-23T14:24:24;99741.25;;;13.37;87.65
30598;BME280;17365;48.878;8.334;2023-02-23T14:30:19;99739.94;;;13.06;89.06
30598;BME280;17365;48.878;8.334;2023-02-23T14:32:47;99743.88;;;12.71;91.25
30598;BME280;17365;48.878;8.334;2023-02-23T14:38:02;99732.66;;;12.66;92.63
30598;BME280;17365;48.878;8.334;2023-02-23T14:40:31;99748.41;;;12.57;93.20
30598;BME280;17365;48.878;8.334;2023-02-23T14:43:01;99743.03;;;12.71;92.69
30598;BME280;17365;48.878;8.334;2023-02-23T14:45:35;99736.00;;;12.76;92.12